Time;durP1;ratioP1;P1;durP2;ratioP2;P2;SDS_P1;SDS_P2;PMS_P1;PMS_P2;Temp;Humidity;BMP_temperature;BMP_pressure;BME280_temperature;BME280_humidity;BME280_pressure;Samples;Min_cycle;Max_cycle;Signal;HPM_P1;HPM_P2
2022/10/11 00:02:05;;;;;;;14.80;2.93;;;;;;;9.64;97.79;102147.44;4989765;28;20207;-72
2022/10/11 00:04:30;;;;;;;13.27;3.67;;;;;;;9.61;98.19;102146.44;4988739;28;20283;-72
2022/10/11 00:06:56;;;;;;;12.57;3.00;;;;;;;9.56;97.43;102145.34;4988443;28;20219;-72
2022/10/11 00:09:21;;;;;;;15.90;3.77;;;;;;;9.54;98.21;102152.94;4989157;28;20199;-71
2022/10/11 00:11:46;;;;;;;16.03;3.83;;;;;;;9.53;98.32;102152.88;4988917;28;20218;-71
2022/10/11 00:14:12;;;;;;;15.77;3.23;;;;;;;9.50;97.92;102152.75;4987150;28;20196;-72
2022/10/11 00:16:39;;;;;;;16.70;3.73;;;;;;;9.46;98.87;102150.88;4988687;28;20231;-72
2022/10/11 00:19:05;;;;;;;15.57;3.83;;;;;;;9.43;98.29;102150.72;4988190;28;20271;-71
2022/10/11 00:21:30;;;;;;;12.70;3.60;;;;;;;9.40;98.63;102159.13;4988770;28;20334;-72
2022/10/11 00:23:56;;;;;;;11.07;2.83;;;;;;;9.34;98.33;102166.53;4989911;28;20192;-72
2022/10/11 00:26:21;;;;;;;11.50;3.17;;;;;;;9.28;99.00;102166.25;4990606;28;20661;-71
2022/10/11 00:28:46;;;;;;;14.03;2.93;;;;;;;9.28;99.26;102163.72;4986910;28;20265;-72
2022/10/11 00:31:15;;;;;;;14.13;3.00;;;;;;;9.23;98.85;102175.41;4988441;28;20211;-72
2022/10/11 00:33:40;;;;;;;11.77;2.87;;;;;;;9.23;98.96;102171.97;4987781;28;20198;-72
2022/10/11 00:36:07;;;;;;;17.23;2.77;;;;;;;9.21;98.83;102179.53;4990413;28;20191;-71
2022/10/11 00:38:33;;;;;;;12.83;3.13;;;;;;;9.16;99.00;102188.69;4989145;28;20188;-72
2022/10/11 00:40:59;;;;;;;9.63;3.17;;;;;;;9.15;98.38;102186.94;4989817;28;20747;-72
2022/10/11 00:43:28;;;;;;;13.10;3.10;;;;;;;9.16;98.75;102195.47;4988848;28;20192;-72
2022/10/11 00:45:56;;;;;;;12.60;2.70;;;;;;;9.15;98.61;102194.59;4984858;28;20214;-72
2022/10/11 00:48:34;;;;;;;10.60;2.90;;;;;;;9.15;98.61;102191.16;4987544;28;20282;-72
2022/10/11 00:51:03;;;;;;;16.40;3.73;;;;;;;9.15;98.93;102192.06;4987361;28;20211;-72
2022/10/11 00:53:31;;;;;;;12.80;3.23;;;;;;;9.15;98.72;102194.59;4986022;28;20204;-71
2022/10/11 00:56:06;;;;;;;13.67;2.83;;;;;;;9.13;98.69;102201.31;5003774;28;20254;-72
2022/10/11 00:58:34;;;;;;;9.20;2.90;;;;;;;9.10;99.19;102193.53;4988614;28;20194;-70
2022/10/11 01:01:00;;;;;;;16.47;3.40;;;;;;;9.10;99.16;102198.63;4987578;28;21027;-72
2022/10/11 01:03:29;;;;;;;11.37;2.90;;;;;;;9.08;99.19;102192.56;4987343;28;20253;-73
2022/10/11 01:05:54;;;;;;;16.43;3.17;;;;;;;9.03;98.23;102203.38;4988039;28;20219;-72
2022/10/11 01:08:20;;;;;;;14.40;3.60;;;;;;;9.01;98.79;102207.53;4987276;28;20553;-71
2022/10/11 01:10:46;;;;;;;10.23;2.80;;;;;;;9.00;98.49;102199.00;4989843;28;20208;-72
2022/10/11 01:13:11;;;;;;;8.50;2.67;;;;;;;9.02;98.25;102209.28;4988951;28;20918;-72
2022/10/11 01:15:44;;;;;;;10.70;2.93;;;;;;;8.98;98.77;102218.47;4987898;28;20249;-71
2022/10/11 01:18:48;;;;;;;9.37;2.90;;;;;;;8.96;97.76;102212.44;4987470;28;20270;-72
2022/10/11 01:21:43;;;;;;;11.47;3.20;;;;;;;8.90;98.83;102219.78;4987107;28;20243;-72
2022/10/11 01:24:53;;;;;;;15.50;3.20;;;;;;;8.87;98.36;102224.75;4987488;28;20203;-72
2022/10/11 01:27:35;;;;;;;9.87;3.00;;;;;;;8.77;97.55;102235.34;4990052;28;20216;-70
2022/10/11 01:30:17;;;;;;;23.83;3.83;;;;;;;8.77;97.81;102231.91;4986410;28;20278;-73
2022/10/11 01:33:03;;;;;;;12.20;3.63;;;;;;;8.75;98.43;102231.81;4986802;28;20226;-72
2022/10/11 01:35:40;;;;;;;13.10;3.10;;;;;;;8.80;98.29;102225.25;4986728;28;20203;-72
2022/10/11 01:38:10;;;;;;;12.00;2.93;;;;;;;8.79;98.77;102227.72;4987785;28;20256;-71
2022/10/11 01:40:58;;;;;;;18.60;3.73;;;;;;;8.77;99.29;102232.78;4985214;28;20212;-72
2022/10/11 01:43:26;;;;;;;14.67;3.40;;;;;;;8.75;99.89;102228.41;4982858;28;20187;-72
2022/10/11 01:45:54;;;;;;;14.07;3.77;;;;;;;8.76;99.48;102231.00;5000904;28;20200;-72
2022/10/11 01:48:20;;;;;;;12.13;4.07;;;;;;;8.74;99.86;102229.19;4980981;28;20195;-71
2022/10/11 01:50:52;;;;;;;13.43;2.93;;;;;;;8.71;99.55;102218.84;4986134;28;20209;-71
2022/10/11 01:53:37;;;;;;;14.27;3.70;;;;;;;8.69;99.99;102234.09;4978976;28;20620;-71
2022/10/11 01:56:31;;;;;;;15.23;3.43;;;;;;;8.65;99.63;102233.84;5000838;28;20199;-71
2022/10/11 01:59:18;;;;;;;17.40;3.80;;;;;;;8.61;99.88;102240.47;4995541;28;20187;-72
2022/10/11 02:01:52;;;;;;;11.27;3.10;;;;;;;8.46;98.74;102239.72;4981138;28;20213;-72
2022/10/11 02:04:21;;;;;;;12.60;3.20;;;;;;;8.53;99.30;102254.53;4998369;28;20677;-72
2022/10/11 02:07:15;;;;;;;15.07;3.40;;;;;;;8.53;98.89;102261.34;4984323;28;20223;-71
2022/10/11 02:10:14;;;;;;;14.00;3.67;;;;;;;8.53;98.48;102261.34;4981652;28;20196;-71
2022/10/11 02:12:53;;;;;;;12.57;3.57;;;;;;;8.54;98.82;102257.97;4980451;28;20577;-71
2022/10/11 02:15:20;;;;;;;13.23;3.20;;;;;;;8.51;99.12;102257.81;4985124;28;20361;-72
2022/10/11 02:17:54;;;;;;;15.80;3.63;;;;;;;8.51;98.85;102257.81;4999267;28;20242;-71
2022/10/11 02:20:23;;;;;;;16.90;3.60;;;;;;;8.55;98.01;102245.28;4986916;28;20247;-71
2022/10/11 02:22:55;;;;;;;10.47;2.67;;;;;;;8.52;98.52;102250.22;4987565;28;20427;-72
2022/10/11 02:25:25;;;;;;;13.13;3.47;;;;;;;8.50;98.11;102258.63;4989306;28;20192;-72
2022/10/11 02:27:55;;;;;;;9.00;2.93;;;;;;;8.45;97.89;102253.28;4983894;28;20214;-71
2022/10/11 02:30:22;;;;;;;9.13;2.83;;;;;;;8.36;97.58;102254.50;4985034;28;20176;-71
2022/10/11 02:32:49;;;;;;;10.83;3.10;;;;;;;8.30;97.69;102261.84;4983318;28;20546;-70
2022/10/11 02:35:16;;;;;;;9.83;2.93;;;;;;;8.24;97.17;102264.09;4984464;28;20284;-72
2022/10/11 02:38:10;;;;;;;6.97;2.47;;;;;;;8.15;97.15;102264.44;4988999;28;20188;-71
2022/10/11 02:40:40;;;;;;;8.93;2.70;;;;;;;8.04;97.11;102269.78;4984283;28;20697;-71
2022/10/11 02:43:28;;;;;;;8.60;2.73;;;;;;;7.99;96.23;102274.66;4987737;28;20215;-71
2022/10/11 02:45:58;;;;;;;10.70;2.60;;;;;;;7.91;95.60;102275.03;4985737;28;20199;-71
2022/10/11 02:48:27;;;;;;;9.27;2.53;;;;;;;7.87;96.07;102276.56;4987827;28;20246;-72
2022/10/11 02:50:54;;;;;;;10.30;2.50;;;;;;;7.77;95.65;102273.44;4985306;28;20690;-71
2022/10/11 02:53:21;;;;;;;6.67;2.50;;;;;;;7.78;95.49;102283.72;4983311;28;20184;-70
2022/10/11 02:55:49;;;;;;;7.13;2.60;;;;;;;7.76;94.47;102284.44;4989586;28;20267;-72
2022/10/11 02:58:14;;;;;;;9.77;2.80;;;;;;;7.69;94.76;102290.88;4983786;28;20642;-71
2022/10/11 03:00:40;;;;;;;11.43;2.83;;;;;;;7.70;95.31;102292.59;4987539;28;20212;-72
2022/10/11 03:03:05;;;;;;;6.77;2.43;;;;;;;7.64;94.99;102293.97;4984379;28;20211;-71
2022/10/11 03:05:39;;;;;;;9.40;3.13;;;;;;;7.71;94.68;102296.06;4984955;28;20265;-70
2022/10/11 03:08:06;;;;;;;12.33;2.97;;;;;;;7.65;94.83;102294.03;4985993;28;20237;-71
2022/10/11 03:10:33;;;;;;;10.47;2.90;;;;;;;7.60;95.31;102303.09;4983795;28;20275;-72
2022/10/11 03:12:58;;;;;;;9.40;2.93;;;;;;;7.68;95.07;102301.88;4987677;28;20187;-73
2022/10/11 03:15:24;;;;;;;11.53;2.73;;;;;;;7.74;96.77;102304.72;4995442;28;20242;-71
2022/10/11 03:17:49;;;;;;;10.37;3.23;;;;;;;7.74;97.29;102312.38;4986920;28;20280;-72
2022/10/11 03:20:15;;;;;;;13.33;3.20;;;;;;;7.82;97.53;102308.56;4984884;28;20563;-72
2022/10/11 03:22:40;;;;;;;9.37;2.67;;;;;;;7.72;97.18;102311.44;4977963;28;20267;-72
2022/10/11 03:25:06;;;;;;;11.97;3.00;;;;;;;7.71;97.09;102319.88;5000053;28;20183;-72
2022/10/11 03:27:32;;;;;;;10.43;2.97;;;;;;;7.66;97.36;102328.97;4987993;28;20199;-71
2022/10/11 03:29:58;;;;;;;13.20;2.87;;;;;;;7.64;97.50;102322.03;4984761;28;20185;-71
2022/10/11 03:32:23;;;;;;;14.73;3.33;;;;;;;7.67;97.09;102320.50;4988728;28;20572;-72
2022/10/11 03:34:49;;;;;;;10.97;2.80;;;;;;;7.64;96.51;102325.44;4981736;28;20191;-72
2022/10/11 03:37:14;;;;;;;8.67;2.40;;;;;;;7.57;96.83;102323.34;4989188;28;20207;-72
2022/10/11 03:39:40;;;;;;;10.63;2.53;;;;;;;7.50;96.01;102325.44;4990182;28;20664;-72
2022/10/11 03:42:05;;;;;;;8.10;2.70;;;;;;;7.45;96.01;102329.41;4990337;28;20218;-71
2022/10/11 03:44:31;;;;;;;6.40;2.23;;;;;;;7.38;96.07;102333.28;4988762;28;20199;-72
2022/10/11 03:46:56;;;;;;;6.67;2.43;;;;;;;7.39;96.18;102337.63;4984812;28;20287;-72
2022/10/11 03:49:22;;;;;;;7.77;2.50;;;;;;;7.30;96.19;102342.19;4990990;28;20215;-72
2022/10/11 03:51:47;;;;;;;7.43;2.50;;;;;;;7.27;96.40;102341.16;4984748;28;20218;-72
2022/10/11 03:54:12;;;;;;;9.40;2.33;;;;;;;7.18;95.17;102344.03;4988916;28;20271;-72
2022/10/11 03:56:38;;;;;;;7.40;2.53;;;;;;;7.13;95.67;102358.19;4987373;28;20544;-72
2022/10/11 03:59:03;;;;;;;7.80;2.80;;;;;;;7.04;95.54;102357.66;5000821;28;20219;-71
2022/10/11 04:01:29;;;;;;;6.17;2.53;;;;;;;7.06;96.01;102363.75;4991128;28;20219;-70
2022/10/11 04:03:56;;;;;;;10.27;2.83;;;;;;;6.98;94.65;102366.59;4988622;28;20631;-71
2022/10/11 04:06:22;;;;;;;7.83;2.40;;;;;;;6.94;95.80;102363.00;4989003;28;20192;-71
2022/10/11 04:08:47;;;;;;;7.47;2.40;;;;;;;6.91;95.04;102369.59;4988262;28;20275;-71
2022/10/11 04:11:13;;;;;;;7.53;2.80;;;;;;;6.81;95.05;102374.94;4988747;28;20299;-71
2022/10/11 04:13:38;;;;;;;6.70;2.53;;;;;;;6.86;96.22;102384.59;4987925;28;20539;-72
2022/10/11 04:16:04;;;;;;;10.70;2.90;;;;;;;6.85;95.97;102384.50;4989738;28;20646;-71
2022/10/11 04:18:30;;;;;;;8.43;2.90;;;;;;;6.89;95.67;102397.50;4970703;28;20195;-71
2022/10/11 04:20:55;;;;;;;10.13;3.00;;;;;;;6.93;96.19;102401.09;4987667;28;20219;-71
2022/10/11 04:23:20;;;;;;;8.10;3.03;;;;;;;6.89;95.97;102399.16;4985997;28;20185;-71
2022/10/11 04:25:47;;;;;;;5.10;2.57;;;;;;;6.94;96.00;102405.41;4987597;28;20184;-71
2022/10/11 04:28:12;;;;;;;5.87;2.70;;;;;;;6.90;96.56;102403.47;4987698;28;20210;-71
2022/10/11 04:30:38;;;;;;;7.87;2.73;;;;;;;6.97;96.58;102411.59;4983313;28;20535;-71
2022/10/11 04:33:04;;;;;;;15.40;5.23;;;;;;;6.99;97.05;102412.53;4986529;28;20189;-71
2022/10/11 04:35:29;;;;;;;8.40;4.07;;;;;;;7.01;98.28;102416.03;4979913;28;20569;-71
2022/10/11 04:37:55;;;;;;;11.00;3.90;;;;;;;6.98;97.55;102413.34;4999479;28;20194;-70
2022/10/11 04:40:20;;;;;;;13.47;6.50;;;;;;;7.00;98.59;102415.97;4987925;28;20227;-70
2022/10/11 04:42:46;;;;;;;14.00;5.80;;;;;;;6.97;98.55;102416.69;4981683;28;20303;-70
2022/10/11 04:45:11;;;;;;;11.87;5.13;;;;;;;6.94;98.97;102407.94;4998547;28;20225;-72
2022/10/11 04:47:39;;;;;;;14.47;5.17;;;;;;;6.88;99.09;102413.59;4982988;28;20188;-70
2022/10/11 04:50:05;;;;;;;12.50;4.33;;;;;;;6.83;98.83;102409.00;4986995;28;20190;-71
2022/10/11 04:52:30;;;;;;;10.80;3.93;;;;;;;6.80;99.35;102404.59;4986570;28;20223;-71
2022/10/11 04:54:56;;;;;;;13.07;4.00;;;;;;;6.73;98.73;102415.19;4986440;28;20208;-71
2022/10/11 04:57:21;;;;;;;10.27;3.43;;;;;;;6.68;97.98;102419.13;4990950;28;20183;-71
2022/10/11 04:59:46;;;;;;;9.20;3.40;;;;;;;6.65;97.78;102428.25;4983027;28;20203;-70
2022/10/11 05:02:12;;;;;;;11.40;3.60;;;;;;;6.64;97.64;102416.34;4990038;28;20577;-71
2022/10/11 05:04:37;;;;;;;7.73;3.20;;;;;;;6.64;97.35;102422.28;4987292;28;20184;-71
2022/10/11 05:07:03;;;;;;;7.67;2.73;;;;;;;6.64;97.12;102429.91;4989938;28;20212;-70
2022/10/11 05:09:28;;;;;;;7.77;2.73;;;;;;;6.73;97.00;102433.00;4986015;28;20215;-70
2022/10/11 05:11:54;;;;;;;10.07;2.57;;;;;;;6.76;97.02;102434.84;4988612;28;20635;-71
2022/10/11 05:14:19;;;;;;;6.87;3.03;;;;;;;6.73;97.35;102440.66;4989909;28;20199;-71
2022/10/11 05:16:45;;;;;;;10.23;2.93;;;;;;;6.67;97.08;102434.31;4981413;28;20195;-70
2022/10/11 05:19:11;;;;;;;7.27;3.00;;;;;;;6.71;97.25;102446.44;4985606;28;20199;-71
2022/10/11 05:21:36;;;;;;;11.13;3.50;;;;;;;6.73;97.82;102450.81;4988546;28;20290;-71
2022/10/11 05:24:02;;;;;;;10.03;3.13;;;;;;;6.68;97.25;102454.75;4987473;28;20196;-72
2022/10/11 05:26:28;;;;;;;4.53;2.57;;;;;;;6.63;98.00;102458.69;5002970;28;20239;-72
2022/10/11 05:28:54;;;;;;;10.17;3.23;;;;;;;6.59;97.39;102459.28;4988594;28;20196;-71
2022/10/11 05:31:20;;;;;;;8.63;2.57;;;;;;;6.59;97.71;102463.53;4987528;28;21296;-72
2022/10/11 05:33:45;;;;;;;7.37;2.80;;;;;;;6.62;97.80;102466.25;4985289;28;20235;-71
2022/10/11 05:36:11;;;;;;;9.00;3.63;;;;;;;6.68;97.70;102467.50;4989638;28;20196;-71
2022/10/11 05:38:37;;;;;;;12.03;3.47;;;;;;;6.73;97.58;102467.78;4988349;28;20183;-70
2022/10/11 05:41:03;;;;;;;8.67;2.83;;;;;;;6.70;97.94;102480.31;5005256;28;20720;-71
2022/10/11 05:43:29;;;;;;;8.13;2.73;;;;;;;6.61;97.71;102478.09;4987066;28;20187;-70
2022/10/11 05:45:55;;;;;;;7.60;2.60;;;;;;;6.56;97.37;102484.56;4987477;28;20196;-71
2022/10/11 05:48:20;;;;;;;8.93;3.57;;;;;;;6.46;97.77;102492.44;4986843;28;20192;-71
2022/10/11 05:50:46;;;;;;;8.70;3.13;;;;;;;6.49;97.42;102501.91;4988548;28;20673;-72
2022/10/11 05:53:11;;;;;;;7.93;3.17;;;;;;;6.50;97.33;102493.50;4985439;28;20183;-71
2022/10/11 05:55:39;;;;;;;6.67;2.83;;;;;;;6.51;97.09;102501.22;4984493;28;20296;-70
2022/10/11 05:58:06;;;;;;;7.07;3.30;;;;;;;6.54;96.82;102506.47;4985953;28;20241;-71
2022/10/11 06:00:34;;;;;;;8.93;3.17;;;;;;;6.59;96.32;102499.16;4983016;28;20212;-71
2022/10/11 06:03:00;;;;;;;7.00;3.40;;;;;;;6.67;96.77;102500.47;4984215;28;20199;-70
2022/10/11 06:05:25;;;;;;;11.07;3.83;;;;;;;6.69;96.58;102504.00;4984966;28;20743;-71
2022/10/11 06:07:51;;;;;;;11.20;3.60;;;;;;;6.69;96.69;102509.09;4983251;28;20238;-70
2022/10/11 06:10:16;;;;;;;9.53;3.40;;;;;;;6.67;96.88;102508.13;4984135;28;20180;-69
2022/10/11 06:12:42;;;;;;;8.90;3.30;;;;;;;6.68;97.15;102512.44;4981624;28;20583;-70
2022/10/11 06:15:09;;;;;;;8.20;3.33;;;;;;;6.66;97.35;102514.88;4988247;28;20253;-70
2022/10/11 06:17:35;;;;;;;11.50;3.43;;;;;;;6.66;97.10;102525.06;4984169;28;20520;-69
2022/10/11 06:20:00;;;;;;;9.17;2.97;;;;;;;6.65;96.82;102523.31;4982752;28;20262;-71
2022/10/11 06:22:26;;;;;;;9.73;3.37;;;;;;;6.64;97.58;102529.16;4986837;28;20218;-71
2022/10/11 06:24:51;;;;;;;6.37;2.97;;;;;;;6.66;97.35;102530.16;4952930;28;20204;-69
2022/10/11 06:27:17;;;;;;;5.13;3.03;;;;;;;6.68;96.90;102537.91;4977623;28;20191;-72
2022/10/11 06:29:42;;;;;;;13.10;3.43;;;;;;;6.76;97.39;102532.47;4999568;28;20565;-71
2022/10/11 06:32:07;;;;;;;7.50;2.73;;;;;;;6.80;97.39;102534.44;4987293;28;20303;-70
2022/10/11 06:34:33;;;;;;;8.80;3.43;;;;;;;6.79;97.66;102535.22;4985848;28;20184;-71
2022/10/11 06:36:58;;;;;;;8.67;3.13;;;;;;;6.91;97.77;102538.50;4982719;28;20631;-70
2022/10/11 06:39:24;;;;;;;12.30;4.40;;;;;;;7.04;97.53;102538.47;4986813;28;20187;-69
2022/10/11 06:41:49;;;;;;;9.80;3.60;;;;;;;7.19;97.29;102541.94;4985669;28;20204;-70
2022/10/11 06:44:15;;;;;;;10.37;4.07;;;;;;;7.33;98.11;102537.66;5006580;28;20669;-70
2022/10/11 06:46:41;;;;;;;8.30;3.80;;;;;;;7.51;97.47;102542.16;4988313;28;20207;-69
2022/10/11 06:49:07;;;;;;;10.47;4.03;;;;;;;7.65;97.44;102538.75;4991918;28;20183;-68
2022/10/11 06:51:34;;;;;;;11.50;4.33;;;;;;;7.78;98.38;102531.03;4987067;28;20230;-71
2022/10/11 06:54:00;;;;;;;15.73;4.50;;;;;;;7.87;98.52;102539.19;4975723;28;20196;-70
2022/10/11 06:56:27;;;;;;;8.53;3.77;;;;;;;8.14;98.93;102539.88;4989541;28;20187;-70
2022/10/11 06:58:54;;;;;;;16.90;4.27;;;;;;;8.43;98.07;102547.53;4988947;28;20290;-69
2022/10/11 07:01:22;;;;;;;9.77;3.77;;;;;;;8.43;97.59;102545.84;4986983;28;20227;-71
2022/10/11 07:03:49;;;;;;;11.70;3.97;;;;;;;8.35;98.75;102549.66;4988367;28;20212;-69
2022/10/11 07:06:17;;;;;;;12.53;4.40;;;;;;;8.48;99.50;102557.19;4992513;28;20623;-69
2022/10/11 07:08:43;;;;;;;9.80;4.00;;;;;;;8.45;98.88;102562.13;4990172;28;20199;-70
2022/10/11 07:11:13;;;;;;;16.00;4.90;;;;;;;8.70;99.10;102562.69;4992192;28;20207;-70
2022/10/11 07:13:40;;;;;;;16.63;5.17;;;;;;;8.97;97.93;102569.28;5005827;28;20223;-71
2022/10/11 07:16:08;;;;;;;13.63;4.27;;;;;;;9.23;97.20;102573.19;4989266;28;20222;-70
2022/10/11 07:18:34;;;;;;;13.20;4.53;;;;;;;9.39;96.87;102566.41;4991479;28;20215;-71
2022/10/11 07:21:04;;;;;;;11.60;4.40;;;;;;;9.52;95.83;102575.56;4990655;28;20259;-69
2022/10/11 07:23:30;;;;;;;18.73;4.90;;;;;;;9.63;96.29;102569.34;4986477;28;20203;-69
2022/10/11 07:25:55;;;;;;;10.33;4.57;;;;;;;9.66;95.56;102570.38;4990194;28;20204;-70
2022/10/11 07:28:21;;;;;;;13.97;4.30;;;;;;;9.83;95.17;102569.56;4991878;28;20199;-70
2022/10/11 07:30:47;;;;;;;12.93;4.63;;;;;;;9.85;94.64;102573.03;4990214;28;20227;-69
2022/10/11 07:33:12;;;;;;;11.90;4.53;;;;;;;10.13;94.18;102567.66;4991624;28;20234;-70
2022/10/11 07:35:38;;;;;;;12.30;4.03;;;;;;;10.24;92.85;102566.47;4991177;28;20283;-70
2022/10/11 07:38:05;;;;;;;12.60;4.10;;;;;;;10.30;92.46;102565.09;4992125;28;20180;-70
2022/10/11 07:40:30;;;;;;;15.07;4.67;;;;;;;10.46;92.25;102562.44;4990435;28;20227;-69
2022/10/11 07:42:57;;;;;;;12.90;4.00;;;;;;;10.68;91.75;102570.34;4991328;28;20203;-70
2022/10/11 07:45:27;;;;;;;12.97;4.20;;;;;;;10.81;91.24;102574.34;4990674;28;20183;-69
2022/10/11 07:47:56;;;;;;;13.10;3.93;;;;;;;10.91;90.33;102577.41;4991569;28;20195;-70
2022/10/11 07:50:23;;;;;;;10.00;3.63;;;;;;;11.18;89.69;102577.75;4991790;28;20573;-69
2022/10/11 07:52:49;;;;;;;12.37;3.43;;;;;;;11.21;89.32;102585.59;4989834;28;20212;-69
2022/10/11 07:55:14;;;;;;;9.87;4.03;;;;;;;11.47;89.03;102577.38;4991406;28;20258;-70
2022/10/11 07:57:40;;;;;;;10.27;3.57;;;;;;;11.67;88.08;102577.47;4991216;28;20195;-71
2022/10/11 08:00:06;;;;;;;10.30;3.63;;;;;;;11.62;87.11;102586.63;4990230;28;20567;-70
2022/10/11 08:02:37;;;;;;;13.47;3.43;;;;;;;11.88;86.69;102583.47;4989826;28;20274;-69
2022/10/11 08:05:03;;;;;;;13.70;3.23;;;;;;;11.93;84.92;102591.38;4991459;28;20199;-71
2022/10/11 08:07:28;;;;;;;7.27;3.03;;;;;;;12.37;84.33;102581.22;4989703;28;20719;-70
2022/10/11 08:09:54;;;;;;;12.93;3.27;;;;;;;12.18;83.34;102578.72;4990971;28;20230;-71
2022/10/11 08:12:20;;;;;;;10.43;3.30;;;;;;;12.37;83.04;102581.22;4989244;28;20277;-70
2022/10/11 08:14:45;;;;;;;14.00;3.73;;;;;;;12.60;82.11;102577.88;4984790;28;20195;-71
2022/10/11 08:17:10;;;;;;;9.10;2.73;;;;;;;12.86;80.03;102577.19;4989852;28;20191;-71
2022/10/11 08:19:36;;;;;;;11.27;3.27;;;;;;;13.05;80.79;102581.34;4988962;28;20196;-70
2022/10/11 08:22:01;;;;;;;11.20;2.87;;;;;;;13.48;79.43;102582.09;4991404;28;20216;-71
2022/10/11 08:24:27;;;;;;;11.20;3.03;;;;;;;13.90;78.63;102579.28;4989074;28;20188;-71
2022/10/11 08:26:52;;;;;;;10.00;3.40;;;;;;;14.20;76.98;102576.84;4990555;28;20219;-71
2022/10/11 08:29:18;;;;;;;11.63;3.17;;;;;;;14.46;75.57;102574.28;4977458;28;20191;-69
2022/10/11 08:31:44;;;;;;;11.13;2.93;;;;;;;14.71;74.07;102581.09;4983433;28;20200;-71
2022/10/11 08:34:10;;;;;;;11.27;2.67;;;;;;;14.94;73.50;102575.81;4987776;28;20188;-72
2022/10/11 08:36:36;;;;;;;7.70;2.27;;;;;;;15.15;72.51;102579.00;4987792;28;20201;-70
2022/10/11 08:39:03;;;;;;;11.93;2.80;;;;;;;14.94;71.26;102580.97;4987728;28;20184;-71
2022/10/11 08:41:41;;;;;;;12.23;2.87;;;;;;;15.28;70.46;102575.06;4987825;28;20226;-70
2022/10/11 08:44:25;;;;;;;10.73;3.33;;;;;;;15.33;69.03;102581.25;4984124;28;20224;-71
2022/10/11 08:47:00;;;;;;;8.33;2.83;;;;;;;15.43;69.06;102584.13;4983288;28;20196;-71
2022/10/11 08:49:29;;;;;;;9.50;2.40;;;;;;;15.93;67.66;102577.75;4988717;28;20191;-70
2022/10/11 08:52:01;;;;;;;8.20;2.55;;;;;;;16.52;65.86;102578.38;4981773;28;20326;-72
2022/10/11 08:54:39;;;;;;;10.48;2.42;;;;;;;17.51;61.91;102577.06;4987836;28;20227;-71
2022/10/11 08:57:06;;;;;;;5.50;2.42;;;;;;;19.15;55.39;102567.56;4986076;28;20206;-72
2022/10/11 08:59:40;;;;;;;9.13;2.75;;;;;;;20.10;52.50;102561.69;4987761;28;20226;-72
2022/10/11 09:02:30;;;;;;;6.35;2.20;;;;;;;21.00;48.96;102565.78;4989192;28;20265;-71
2022/10/11 09:04:55;;;;;;;6.28;2.42;;;;;;;22.14;46.89;102567.78;4986159;28;20194;-70
2022/10/11 09:07:58;;;;;;;6.30;2.60;;;;;;;22.38;46.09;102559.06;4989607;28;20179;-71
2022/10/11 09:10:47;;;;;;;8.35;2.58;;;;;;;23.53;43.93;102557.81;4982918;28;20211;-71
2022/10/11 09:13:33;;;;;;;8.00;2.53;;;;;;;23.74;42.34;102561.16;4985519;28;20243;-70
2022/10/11 09:16:14;;;;;;;7.65;2.28;;;;;;;24.45;40.32;102555.34;4991868;28;20208;-70
2022/10/11 09:18:54;;;;;;;7.53;3.67;;;;;;;25.11;38.88;102554.59;4990717;28;20271;-70
2022/10/11 09:21:47;;;;;;;6.90;3.17;;;;;;;25.83;37.48;102553.56;4985698;28;20223;-69
2022/10/11 09:24:22;;;;;;;8.02;3.25;;;;;;;25.66;38.59;102559.09;4989030;28;20203;-71
2022/10/11 09:26:58;;;;;;;5.80;2.47;;;;;;;25.65;37.60;102559.94;4986411;28;20214;-69
2022/10/11 09:29:42;;;;;;;4.43;2.40;;;;;;;25.62;38.42;102549.53;4988301;28;20179;-69
2022/10/11 09:32:14;;;;;;;7.82;2.70;;;;;;;25.37;36.94;102552.53;4990669;28;20207;-70
2022/10/11 09:34:42;;;;;;;5.45;2.63;;;;;;;26.42;37.01;102550.78;4989130;28;20211;-70
2022/10/11 09:37:28;;;;;;;5.32;2.78;;;;;;;26.83;34.91;102545.63;4989352;28;20551;-70
2022/10/11 09:40:24;;;;;;;6.40;2.40;;;;;;;27.76;33.54;102540.94;4987401;28;20212;-70
2022/10/11 09:42:49;;;;;;;6.65;2.28;;;;;;;28.00;33.17;102541.22;4986694;28;20203;-70
2022/10/11 09:45:20;;;;;;;6.18;2.47;;;;;;;28.84;32.52;102545.97;4990248;28;20557;-68
2022/10/11 09:47:47;;;;;;;6.80;2.70;;;;;;;29.18;31.44;102541.47;4986099;28;20187;-69
2022/10/11 09:50:19;;;;;;;7.05;2.47;;;;;;;29.46;31.95;102534.41;4991478;28;20230;-70
2022/10/11 09:52:53;;;;;;;5.35;2.50;;;;;;;29.31;31.01;102534.91;4983319;28;20207;-70
2022/10/11 09:55:38;;;;;;;9.95;2.88;;;;;;;28.44;31.92;102543.59;4989377;28;20220;-70
2022/10/11 09:58:23;;;;;;;6.25;2.50;;;;;;;29.76;30.54;102544.03;4988259;28;20191;-70
2022/10/11 10:01:01;;;;;;;8.82;2.40;;;;;;;30.51;29.44;102541.44;4981764;28;20211;-70
2022/10/11 10:03:30;;;;;;;6.82;2.88;;;;;;;30.79;29.07;102534.25;4983553;28;20196;-72
2022/10/11 10:06:15;;;;;;;8.65;3.03;;;;;;;31.58;27.65;102534.69;4986479;28;20282;-69
2022/10/11 10:08:46;;;;;;;8.45;3.08;;;;;;;31.52;27.40;102537.56;4986456;28;20191;-70
2022/10/11 10:11:12;;;;;;;6.35;2.80;;;;;;;31.53;27.24;102537.50;4985996;28;20261;-70
2022/10/11 10:13:37;;;;;;;7.00;2.65;;;;;;;31.80;27.17;102548.78;4985942;28;20177;-71
2022/10/11 10:16:04;;;;;;;5.53;2.33;;;;;;;32.50;26.57;102544.91;4992703;28;20190;-69
2022/10/11 10:18:41;;;;;;;7.78;2.85;;;;;;;32.45;27.07;102544.25;4991448;28;20175;-70
2022/10/11 10:21:12;;;;;;;5.45;2.20;;;;;;;33.31;25.95;102541.13;4990109;28;20219;-70
2022/10/11 10:23:37;;;;;;;11.30;2.97;;;;;;;30.65;28.58;102554.19;4989892;28;20188;-69
2022/10/11 10:26:17;;;;;;;10.38;3.40;;;;;;;30.23;28.79;102553.03;4987186;28;20606;-70
2022/10/11 10:29:00;;;;;;;8.50;2.85;;;;;;;30.86;28.41;102546.34;4986334;28;20231;-70
2022/10/11 10:31:34;;;;;;;6.90;2.90;;;;;;;32.02;27.95;102549.63;4989890;28;20266;-70
2022/10/11 10:34:01;;;;;;;6.90;2.70;;;;;;;33.13;25.79;102544.63;4988744;28;20199;-70
2022/10/11 10:36:31;;;;;;;6.78;2.88;;;;;;;33.25;24.94;102546.72;4989153;28;20638;-69
2022/10/11 10:39:04;;;;;;;6.88;3.08;;;;;;;33.60;25.06;102544.09;4991970;28;20188;-70
2022/10/11 10:41:30;;;;;;;7.35;2.92;;;;;;;34.54;24.11;102538.34;4990347;28;20223;-72
2022/10/11 10:43:58;;;;;;;7.78;2.67;;;;;;;33.97;24.02;102544.00;4983840;28;20196;-71
2022/10/11 10:46:35;;;;;;;6.60;2.70;;;;;;;35.50;23.70;102535.66;4988867;28;20191;-71
2022/10/11 10:49:13;;;;;;;7.68;2.83;;;;;;;33.65;23.62;102544.72;4991013;28;20196;-70
2022/10/11 10:52:04;;;;;;;5.95;2.40;;;;;;;35.25;22.14;102537.97;4991215;28;20693;-70
2022/10/11 10:54:54;;;;;;;5.60;2.80;;;;;;;34.80;23.61;102534.34;4989528;28;20282;-70
2022/10/11 10:57:25;;;;;;;9.23;3.00;;;;;;;34.00;23.15;102548.31;4993718;28;20203;-69
2022/10/11 11:00:15;;;;;;;8.02;3.03;;;;;;;35.00;22.90;102547.41;4987871;28;20279;-71
2022/10/11 11:02:53;;;;;;;7.55;2.30;;;;;;;32.25;25.09;102557.47;4987317;28;20716;-72
2022/10/11 11:05:24;;;;;;;7.90;3.15;;;;;;;30.18;28.73;102558.50;4992970;28;20202;-71
2022/10/11 11:08:20;;;;;;;8.52;2.95;;;;;;;27.60;31.67;102555.38;4991812;28;20194;-69
2022/10/11 11:10:52;;;;;;;7.97;2.65;;;;;;;24.73;36.73;102578.63;4988216;28;20214;-70
2022/10/11 11:13:44;;;;;;;7.75;2.70;;;;;;;24.22;37.83;102586.13;4984530;28;20234;-71
2022/10/11 11:16:36;;;;;;;8.82;2.20;;;;;;;26.62;33.69;102572.38;4989939;28;20246;-72
2022/10/11 11:19:37;;;;;;;7.90;2.75;;;;;;;24.46;38.50;102583.28;4991826;28;20242;-72
2022/10/11 11:22:14;;;;;;;9.32;2.72;;;;;;;23.64;39.42;102584.78;4990406;28;20220;-73
2022/10/11 11:25:01;;;;;;;7.43;2.17;;;;;;;22.73;41.85;102586.00;4990401;28;20203;-72
2022/10/11 11:27:38;;;;;;;9.00;2.70;;;;;;;21.92;43.68;102593.00;4990574;28;20606;-70
2022/10/11 11:30:19;;;;;;;8.70;2.30;;;;;;;21.51;43.88;102589.41;4991520;28;20199;-72
2022/10/11 11:33:01;;;;;;;10.13;2.83;;;;;;;21.42;44.92;102592.00;4987678;28;20231;-72
2022/10/11 11:35:34;;;;;;;9.73;2.60;;;;;;;20.81;44.97;102597.78;4976902;28;20224;-72
2022/10/11 11:38:08;;;;;;;9.83;2.63;;;;;;;20.52;46.42;102596.75;4990854;28;20191;-70
2022/10/11 11:40:45;;;;;;;8.03;2.40;;;;;;;20.44;47.07;102600.13;4990444;28;20215;-70
2022/10/11 11:43:22;;;;;;;7.27;2.40;;;;;;;20.39;46.64;102601.81;4990978;28;20282;-71